Time;durP1;ratioP1;P1;durP2;ratioP2;P2;SDS_P1;SDS_P2;PMS_P1;PMS_P2;Temp;Humidity;BMP_temperature;BMP_pressure;BME280_temperature;BME280_humidity;BME280_pressure;Samples;Min_cycle;Max_cycle;Signal;HPM_P1;HPM_P2
2022/01/15 07:01:16;;;;;;;108.47;45.97;;;;;;;;;;5477025;23;20064;-77
2022/01/15 07:03:42;;;;;;;104.85;46.35;;;;;;;;;;4895976;29;20427;-77
2022/01/15 07:06:09;;;;;;;114.75;48.65;;;;;;;;;;4893410;29;20049;-77
2022/01/15 07:08:36;;;;;;;112.55;48.13;;;;;;;;;;4893366;29;20547;-77
2022/01/15 07:11:03;;;;;;;116.97;49.78;;;;;;;;;;4893338;29;20085;-77
2022/01/15 07:13:30;;;;;;;115.05;48.70;;;;;;;;;;4893196;29;20056;-77
2022/01/15 07:15:56;;;;;;;121.60;50.45;;;;;;;;;;4893256;29;20084;-78
2022/01/15 07:18:23;;;;;;;120.82;49.53;;;;;;;;;;4896337;29;20054;-77
2022/01/15 07:20:51;;;;;;;112.25;48.83;;;;;;;;;;4892621;29;20056;-77
2022/01/15 07:23:18;;;;;;;116.78;48.80;;;;;;;;;;4893053;29;20052;-77
2022/01/15 07:25:45;;;;;;;117.15;48.78;;;;;;;;;;4893540;29;20076;-77
2022/01/15 07:28:12;;;;;;;120.72;51.40;;;;;;;;;;4893016;29;20057;-77
2022/01/15 07:30:39;;;;;;;124.63;50.80;;;;;;;;;;4895673;29;20112;-77
2022/01/15 07:33:06;;;;;;;125.15;51.22;;;;;;;;;;4892015;29;20076;-76
2022/01/15 07:35:32;;;;;;;127.15;51.75;;;;;;;;;;4891784;29;20060;-77
2022/01/15 07:38:00;;;;;;;123.43;51.45;;;;;;;;;;4891990;29;20521;-77
2022/01/15 07:40:30;;;;;;;127.68;51.70;;;;;;;;;;4891528;29;20045;-77
2022/01/15 07:42:57;;;;;;;124.35;49.60;;;;;;;;;;4893275;29;20095;-77
2022/01/15 07:45:24;;;;;;;128.57;50.67;;;;;;;;;;4893491;29;20049;-78
2022/01/15 07:47:50;;;;;;;122.10;50.83;;;;;;;;;;4892106;29;20075;-78
2022/01/15 07:50:25;;;;;;;122.13;50.95;;;;;;;;;;4888824;29;20048;-78
2022/01/15 07:52:52;;;;;;;132.40;51.65;;;;;;;;;;4895221;29;20572;-77
2022/01/15 07:55:20;;;;;;;137.55;55.42;;;;;;;;;;4889381;29;20052;-77
2022/01/15 07:58:00;;;;;;;135.25;57.20;;;;;;;;;;4890235;29;20067;-77
2022/01/15 08:00:27;;;;;;;130.00;52.95;;;;;;;;;;4889470;29;20428;-77
2022/01/15 08:02:54;;;;;;;126.28;51.45;;;;;;;;;;4889806;29;20052;-78
2022/01/15 08:05:21;;;;;;;119.72;49.83;;;;;;;;;;4889276;29;20572;-77
2022/01/15 08:07:47;;;;;;;126.90;50.15;;;;;;;;;;4889650;29;20052;-78
2022/01/15 08:10:15;;;;;;;130.02;55.67;;;;;;;;;;4889387;29;20068;-78
2022/01/15 08:12:47;;;;;;;126.13;51.70;;;;;;;;;;4890352;29;20087;-78
2022/01/15 08:15:15;;;;;;;130.50;50.22;;;;;;;;;;4890156;29;20052;-77
2022/01/15 08:17:41;;;;;;;133.03;52.50;;;;;;;;;;4888549;29;20108;-77
2022/01/15 08:20:09;;;;;;;123.88;49.08;;;;;;;;;;4887501;29;20112;-77
2022/01/15 08:22:36;;;;;;;129.02;48.95;;;;;;;;;;4889978;29;20175;-78
2022/01/15 08:25:03;;;;;;;129.27;51.17;;;;;;;;;;4889530;29;20529;-78
2022/01/15 08:27:29;;;;;;;137.82;50.70;;;;;;;;;;4873587;29;20064;-78
2022/01/15 08:29:56;;;;;;;132.30;51.97;;;;;;;;;;4867808;29;20080;-78
2022/01/15 08:32:22;;;;;;;139.82;52.20;;;;;;;;;;4870022;29;20522;-77
2022/01/15 08:34:49;;;;;;;139.32;51.97;;;;;;;;;;4870671;29;20052;-77
2022/01/15 08:37:16;;;;;;;137.95;51.85;;;;;;;;;;4869933;29;20606;-77
2022/01/15 08:39:43;;;;;;;130.63;51.40;;;;;;;;;;4871018;29;20101;-78
2022/01/15 08:42:10;;;;;;;133.80;53.60;;;;;;;;;;4879186;29;20104;-78
2022/01/15 08:44:41;;;;;;;137.38;53.30;;;;;;;;;;4871358;29;20468;-78
2022/01/15 08:47:08;;;;;;;129.48;51.03;;;;;;;;;;4869997;29;20057;-77
2022/01/15 08:49:36;;;;;;;138.30;51.55;;;;;;;;;;4871125;29;20144;-78
2022/01/15 08:52:03;;;;;;;144.63;51.05;;;;;;;;;;4879623;29;20094;-78
2022/01/15 08:54:30;;;;;;;139.48;52.25;;;;;;;;;;4881610;29;20497;-78
2022/01/15 08:57:00;;;;;;;147.25;53.08;;;;;;;;;;4881644;29;20597;-78
2022/01/15 08:59:27;;;;;;;140.18;54.63;;;;;;;;;;4871587;29;20657;-78
2022/01/15 09:01:58;;;;;;;137.32;52.47;;;;;;;;;;4869867;29;20061;-78
2022/01/15 09:04:25;;;;;;;132.23;52.30;;;;;;;;;;4865977;29;20050;-77
2022/01/15 09:06:53;;;;;;;133.30;51.45;;;;;;;;;;4869911;29;20108;-78
2022/01/15 09:09:19;;;;;;;130.27;49.92;;;;;;;;;;4870464;29;20184;-78
2022/01/15 09:11:46;;;;;;;129.02;52.08;;;;;;;;;;4870139;29;20061;-77
2022/01/15 09:14:13;;;;;;;133.25;50.92;;;;;;;;;;4871434;29;20463;-77
2022/01/15 09:16:40;;;;;;;132.10;51.50;;;;;;;;;;4877007;29;20136;-77
2022/01/15 09:19:07;;;;;;;144.30;52.97;;;;;;;;;;4869627;29;20057;-78
2022/01/15 09:21:34;;;;;;;137.48;52.95;;;;;;;;;;4867255;29;20169;-77
2022/01/15 09:24:00;;;;;;;138.23;51.25;;;;;;;;;;4869994;29;20526;-78
2022/01/15 09:31:59;;;;;;;137.32;50.20;;;;;;;;;;4870445;29;20116;-78
2022/01/15 09:34:26;;;;;;;141.13;50.95;;;;;;;;;;4879554;29;20045;-78
2022/01/15 09:36:54;;;;;;;138.07;51.40;;;;;;;;;;4869886;29;20052;-78
2022/01/15 09:39:22;;;;;;;142.85;50.70;;;;;;;;;;4870036;29;20500;-78
2022/01/15 09:41:50;;;;;;;127.15;48.03;;;;;;;;;;4875873;29;20061;-77
2022/01/15 09:44:18;;;;;;;136.00;50.53;;;;;;;;;;4872507;29;20083;-78
2022/01/15 09:46:45;;;;;;;129.70;51.38;;;;;;;;;;4869653;29;20163;-77
2022/01/15 09:49:18;;;;;;;127.97;48.63;;;;;;;;;;4869915;29;20080;-78
2022/01/15 09:51:46;;;;;;;133.00;50.28;;;;;;;;;;4882395;29;20059;-79
2022/01/15 09:54:17;;;;;;;130.55;50.20;;;;;;;;;;4871242;29;20052;-78
2022/01/15 09:56:44;;;;;;;126.07;48.88;;;;;;;;;;4868316;29;20546;-78
2022/01/15 09:59:10;;;;;;;133.25;49.13;;;;;;;;;;4873422;29;20100;-78
2022/01/15 10:01:37;;;;;;;123.63;48.22;;;;;;;;;;4881393;29;20057;-78
2022/01/15 10:04:04;;;;;;;129.48;49.78;;;;;;;;;;4872609;29;20049;-78
2022/01/15 10:06:31;;;;;;;127.63;49.47;;;;;;;;;;4872142;29;20518;-77
2022/01/15 10:09:03;;;;;;;121.80;47.83;;;;;;;;;;4873592;29;20658;-78
2022/01/15 10:11:44;;;;;;;122.72;48.25;;;;;;;;;;4876127;29;20045;-78
2022/01/15 10:14:32;;;;;;;116.82;49.38;;;;;;;;;;4875232;29;20218;-77
2022/01/15 10:17:02;;;;;;;120.35;48.45;;;;;;;;;;4878667;29;20053;-78
2022/01/15 10:19:36;;;;;;;115.55;48.25;;;;;;;;;;4876562;29;20048;-77
2022/01/15 10:22:07;;;;;;;115.68;48.47;;;;;;;;;;4876958;29;20156;-78
2022/01/15 10:24:34;;;;;;;110.38;48.38;;;;;;;;;;4880034;29;20118;-79
2022/01/15 10:27:22;;;;;;;106.53;45.80;;;;;;;;;;4873212;29;20530;-78
2022/01/15 10:29:59;;;;;;;111.05;45.50;;;;;;;;;;4872696;29;20145;-77
2022/01/15 10:32:27;;;;;;;118.28;47.20;;;;;;;;;;4873013;29;20085;-77
2022/01/15 10:34:55;;;;;;;109.13;47.53;;;;;;;;;;4874339;29;20053;-78
2022/01/15 10:37:27;;;;;;;106.32;45.15;;;;;;;;;;4880361;29;20696;-77
2022/01/15 10:40:11;;;;;;;107.03;45.95;;;;;;;;;;4871529;29;20076;-77
2022/01/15 10:42:39;;;;;;;105.03;45.00;;;;;;;;;;4887395;29;20056;-78
2022/01/15 10:45:13;;;;;;;104.95;45.35;;;;;;;;;;4872377;29;20079;-79
2022/01/15 10:47:43;;;;;;;108.25;45.95;;;;;;;;;;4873161;29;20057;-79
2022/01/15 10:50:23;;;;;;;98.45;44.67;;;;;;;;;;4873740;29;20056;-79
2022/01/15 10:52:50;;;;;;;103.15;45.75;;;;;;;;;;4879215;29;20060;-79
2022/01/15 10:55:24;;;;;;;98.57;44.22;;;;;;;;;;4873203;29;20074;-79
2022/01/15 10:57:59;;;;;;;97.57;44.00;;;;;;;;;;4873159;29;20053;-79
2022/01/15 11:00:39;;;;;;;101.63;45.13;;;;;;;;;;4884227;29;20117;-78
2022/01/15 11:03:12;;;;;;;97.13;44.33;;;;;;;;;;4864559;29;20053;-78
2022/01/15 11:05:44;;;;;;;96.70;43.78;;;;;;;;;;4867343;29;20053;-77
2022/01/15 11:08:23;;;;;;;89.43;41.28;;;;;;;;;;4872256;29;20052;-79
2022/01/15 11:10:57;;;;;;;99.55;44.42;;;;;;;;;;4870522;29;20418;-78
2022/01/15 11:13:29;;;;;;;94.70;43.60;;;;;;;;;;4866122;29;20050;-79
2022/01/15 11:16:00;;;;;;;92.70;41.65;;;;;;;;;;4865622;29;20098;-79
2022/01/15 11:18:51;;;;;;;96.70;44.28;;;;;;;;;;4869181;29;20522;-78
2022/01/15 11:21:20;;;;;;;92.72;42.08;;;;;;;;;;4869968;29;20084;-78
2022/01/15 11:23:48;;;;;;;92.65;44.35;;;;;;;;;;4871654;29;20076;-78
2022/01/15 11:26:28;;;;;;;93.75;43.50;;;;;;;;;;4861610;29;20049;-81
2022/01/15 11:28:57;;;;;;;94.88;41.42;;;;;;;;;;4869676;29;20593;-78
2022/01/15 11:31:31;;;;;;;85.90;39.47;;;;;;;;;;4864439;29;20065;-78
2022/01/15 11:34:00;;;;;;;85.90;38.65;;;;;;;;;;4865152;29;20049;-77
2022/01/15 11:36:38;;;;;;;80.03;38.95;;;;;;;;;;4850566;29;20053;-78
2022/01/15 11:39:07;;;;;;;;;;;;;;;;;;4872341;29;20821;-79
2022/01/15 11:41:39;;;;;;;89.07;39.63;;;;;;;;;;4870591;29;19927;-77
2022/01/15 11:44:38;;;;;;;83.45;38.13;;;;;;;;;;4864651;29;20049;-78
2022/01/15 11:47:15;;;;;;;72.43;36.25;;;;;;;;;;4871931;29;20066;-78
2022/01/15 11:49:44;;;;;;;81.20;38.53;;;;;;;;;;4869507;29;20049;-78
2022/01/15 11:52:12;;;;;;;68.93;34.60;;;;;;;;;;4866287;29;20049;-78
2022/01/15 11:54:51;;;;;;;73.75;36.97;;;;;;;;;;4873577;29;20048;-78
2022/01/15 11:57:47;;;;;;;71.75;34.53;;;;;;;;;;4864889;29;20422;-78
2022/01/15 12:00:43;;;;;;;65.80;33.63;;;;;;;;;;4869716;29;20085;-79
2022/01/15 12:03:12;;;;;;;67.93;34.53;;;;;;;;;;4868966;29;20053;-78
2022/01/15 12:05:44;;;;;;;64.28;31.35;;;;;;;;;;4870932;29;20593;-77
2022/01/15 12:08:11;;;;;;;74.20;35.28;;;;;;;;;;4869602;29;20105;-77
2022/01/15 12:10:44;;;;;;;64.32;31.45;;;;;;;;;;4869195;29;20076;-78
2022/01/15 12:13:20;;;;;;;60.75;31.17;;;;;;;;;;4869774;29;20048;-78
2022/01/15 12:16:15;;;;;;;80.85;34.15;;;;;;;;;;4868229;29;20045;-78
2022/01/15 12:18:47;;;;;;;77.35;30.88;;;;;;;;;;4860336;29;20110;-78
2022/01/15 12:21:40;;;;;;;75.00;29.13;;;;;;;;;;4866818;29;20101;-79
2022/01/15 12:24:39;;;;;;;60.50;30.10;;;;;;;;;;4868056;29;20048;-79
2022/01/15 12:27:10;;;;;;;63.13;28.65;;;;;;;;;;4864124;29;20054;-78
2022/01/15 12:29:39;;;;;;;70.57;29.95;;;;;;;;;;4855093;29;20598;-78
2022/01/15 12:32:06;;;;;;;61.65;32.65;;;;;;;;;;4862040;29;20435;-78
2022/01/15 12:34:34;;;;;;;88.18;44.67;;;;;;;;;;4857212;29;20049;-77
2022/01/15 12:37:03;;;;;;;62.17;32.53;;;;;;;;;;4868854;29;20053;-78
2022/01/15 12:39:39;;;;;;;64.40;31.85;;;;;;;;;;4865584;29;20052;-76
2022/01/15 12:42:07;;;;;;;51.28;29.23;;;;;;;;;;4868905;29;20087;-78
2022/01/15 12:44:54;;;;;;;51.10;28.43;;;;;;;;;;4874975;29;20054;-78
2022/01/15 12:47:21;;;;;;;53.05;26.48;;;;;;;;;;4874905;29;20285;-78
2022/01/15 12:49:51;;;;;;;55.08;28.60;;;;;;;;;;4871886;29;20081;-78
2022/01/15 12:52:24;;;;;;;52.03;25.42;;;;;;;;;;4872837;29;20048;-78
2022/01/15 12:54:53;;;;;;;51.60;27.10;;;;;;;;;;4881714;29;20104;-78
2022/01/15 12:57:36;;;;;;;47.55;25.10;;;;;;;;;;4872705;29;20191;-78
2022/01/15 13:00:20;;;;;;;49.15;25.92;;;;;;;;;;4872673;29;20049;-78
2022/01/15 13:02:48;;;;;;;52.45;25.65;;;;;;;;;;4879633;29;20053;-78
2022/01/15 13:05:18;;;;;;;41.90;22.60;;;;;;;;;;4871189;29;20494;-77
2022/01/15 13:08:01;;;;;;;47.95;23.02;;;;;;;;;;4871222;29;20081;-78
2022/01/15 13:11:03;;;;;;;40.60;23.35;;;;;;;;;;4871726;29;20056;-77
2022/01/15 13:13:41;;;;;;;47.80;22.92;;;;;;;;;;4870266;29;20053;-77
2022/01/15 13:16:14;;;;;;;45.95;23.00;;;;;;;;;;4882162;29;20089;-77
2022/01/15 13:18:43;;;;;;;42.65;23.48;;;;;;;;;;4871693;29;20845;-78
2022/01/15 13:21:14;;;;;;;40.20;22.58;;;;;;;;;;4880605;29;20124;-77
2022/01/15 13:23:57;;;;;;;49.78;23.25;;;;;;;;;;4871954;29;20108;-77
2022/01/15 13:26:27;;;;;;;43.45;23.75;;;;;;;;;;4870167;29;20056;-76
2022/01/15 13:29:03;;;;;;;45.88;23.30;;;;;;;;;;4872356;29;20053;-77
2022/01/15 13:31:35;;;;;;;42.17;22.20;;;;;;;;;;4871235;29;20123;-78
2022/01/15 13:34:27;;;;;;;43.95;22.60;;;;;;;;;;4872724;29;20050;-77
2022/01/15 13:36:54;;;;;;;50.67;22.88;;;;;;;;;;4870475;29;20545;-77
2022/01/15 13:39:22;;;;;;;45.13;23.83;;;;;;;;;;4882227;29;20116;-78
2022/01/15 13:41:49;;;;;;;46.88;23.73;;;;;;;;;;4880492;29;20052;-78
2022/01/15 13:44:17;;;;;;;51.28;25.70;;;;;;;;;;4869523;29;20049;-78
2022/01/15 13:46:47;;;;;;;47.42;25.02;;;;;;;;;;4877670;29;20084;-78
2022/01/15 13:49:17;;;;;;;53.47;24.58;;;;;;;;;;4878205;29;20047;-78
2022/01/15 13:54:33;;;;;;;52.08;25.27;;;;;;;;;;4875792;29;20041;-78
2022/01/15 13:57:13;;;;;;;48.33;24.85;;;;;;;;;;4886096;29;20117;-78
2022/01/15 13:59:40;;;;;;;48.75;25.83;;;;;;;;;;4876241;29;20065;-76
2022/01/15 14:02:07;;;;;;;52.40;22.42;;;;;;;;;;4867615;29;20189;-78
2022/01/15 14:04:36;;;;;;;44.85;23.40;;;;;;;;;;4870234;29;20055;-77
2022/01/15 14:07:05;;;;;;;43.10;23.70;;;;;;;;;;4870400;29;20528;-76
2022/01/15 14:09:34;;;;;;;42.50;23.35;;;;;;;;;;4884581;29;20080;-76
2022/01/15 14:12:00;;;;;;;;;;;;;;;;;;4887318;29;20080;-78
2022/01/15 14:14:53;;;;;;;42.58;22.20;;;;;;;;;;4899977;29;20017;-78
2022/01/15 14:17:22;;;;;;;57.00;25.30;;;;;;;;;;4899758;29;20549;-76
2022/01/15 14:20:05;;;;;;;55.22;29.08;;;;;;;;;;4901598;29;20134;-77
2022/01/15 14:22:54;;;;;;;48.33;26.50;;;;;;;;;;4898645;29;20060;-77
2022/01/15 14:25:23;;;;;;;79.82;43.92;;;;;;;;;;4899249;29;20124;-77
2022/01/15 14:28:05;;;;;;;53.75;26.98;;;;;;;;;;4900905;29;20052;-77
2022/01/15 14:30:33;;;;;;;52.58;23.00;;;;;;;;;;4901719;29;20105;-77
2022/01/15 14:33:00;;;;;;;49.83;23.17;;;;;;;;;;4902693;29;20077;-77
2022/01/15 14:35:29;;;;;;;47.38;23.60;;;;;;;;;;4897098;29;20045;-77
2022/01/15 14:37:57;;;;;;;43.13;22.38;;;;;;;;;;4899461;29;20168;-77
2022/01/15 14:40:24;;;;;;;40.88;23.95;;;;;;;;;;4900517;29;20361;-77
2022/01/15 14:42:51;;;;;;;42.90;21.52;;;;;;;;;;4896926;29;20465;-79
2022/01/15 14:45:18;;;;;;;45.33;23.30;;;;;;;;;;4894430;29;20072;-77
2022/01/15 14:47:45;;;;;;;47.22;24.88;;;;;;;;;;4881997;29;20053;-78
2022/01/15 14:50:14;;;;;;;44.85;24.63;;;;;;;;;;4871974;29;20052;-78
2022/01/15 14:52:41;;;;;;;38.08;23.08;;;;;;;;;;4869581;29;20579;-78
2022/01/15 14:55:08;;;;;;;48.97;25.17;;;;;;;;;;4873316;29;20068;-79
2022/01/15 14:57:36;;;;;;;43.35;22.77;;;;;;;;;;4865550;29;20045;-80
2022/01/15 15:00:05;;;;;;;39.40;21.02;;;;;;;;;;4864922;29;20077;-78
2022/01/15 15:02:33;;;;;;;39.15;21.08;;;;;;;;;;4888344;29;20045;-78
2022/01/15 15:05:00;;;;;;;47.17;27.15;;;;;;;;;;4893683;29;20592;-79
2022/01/15 15:07:26;;;;;;;44.20;25.08;;;;;;;;;;4893378;29;20101;-78
2022/01/15 15:09:53;;;;;;;50.00;25.95;;;;;;;;;;4895765;29;20071;-79
2022/01/15 15:12:31;;;;;;;45.83;24.40;;;;;;;;;;4894325;29;20080;-79
2022/01/15 15:14:57;;;;;;;38.00;22.13;;;;;;;;;;4893640;29;20053;-79
2022/01/15 15:17:24;;;;;;;48.28;23.88;;;;;;;;;;4892239;29;20426;-79
2022/01/15 15:19:51;;;;;;;45.80;23.67;;;;;;;;;;4891685;29;20406;-79
2022/01/15 15:22:20;;;;;;;39.35;20.85;;;;;;;;;;4891389;29;20065;-79
2022/01/15 15:24:47;;;;;;;44.85;22.35;;;;;;;;;;4894463;29;20536;-79
2022/01/15 15:27:14;;;;;;;52.90;23.38;;;;;;;;;;4887502;29;20072;-79
2022/01/15 15:29:42;;;;;;;36.47;20.75;;;;;;;;;;4891704;29;20049;-79
2022/01/15 15:32:10;;;;;;;47.70;23.42;;;;;;;;;;4892151;29;20048;-78
2022/01/15 15:34:36;;;;;;;51.10;25.15;;;;;;;;;;4893149;29;20049;-78
2022/01/15 15:37:03;;;;;;;50.60;26.92;;;;;;;;;;4894097;29;20056;-79
2022/01/15 15:39:30;;;;;;;56.13;28.02;;;;;;;;;;4895572;29;20049;-78
2022/01/15 15:41:56;;;;;;;46.22;23.70;;;;;;;;;;4893270;29;20080;-79
2022/01/15 15:44:23;;;;;;;43.88;23.88;;;;;;;;;;4893505;29;20407;-78
2022/01/15 15:46:49;;;;;;;41.17;22.45;;;;;;;;;;4893358;29;20064;-79
2022/01/15 15:49:16;;;;;;;51.25;23.67;;;;;;;;;;4892326;29;20053;-79
2022/01/15 15:51:43;;;;;;;46.85;22.73;;;;;;;;;;4895319;29;20127;-79
2022/01/15 15:54:09;;;;;;;40.45;22.73;;;;;;;;;;4894140;29;20053;-79
2022/01/15 15:56:36;;;;;;;46.08;22.05;;;;;;;;;;4893234;29;20087;-79
2022/01/15 15:59:02;;;;;;;51.17;34.17;;;;;;;;;;4892903;29;20096;-79
2022/01/15 16:01:29;;;;;;;50.70;29.13;;;;;;;;;;4873948;29;20080;-79
2022/01/15 16:03:56;;;;;;;53.05;28.13;;;;;;;;;;4876261;29;20060;-79
2022/01/15 16:06:23;;;;;;;54.22;27.58;;;;;;;;;;4875200;29;20057;-79
2022/01/15 16:08:49;;;;;;;55.40;29.23;;;;;;;;;;4873341;29;20124;-79
2022/01/15 16:11:16;;;;;;;53.17;28.30;;;;;;;;;;4873617;29;20072;-79
2022/01/15 16:13:44;;;;;;;41.78;24.35;;;;;;;;;;4874140;29;20566;-78
2022/01/15 16:16:11;;;;;;;51.88;25.25;;;;;;;;;;4859306;29;20578;-79
2022/01/15 16:18:38;;;;;;;51.53;26.83;;;;;;;;;;4876680;29;20087;-78
2022/01/15 16:21:04;;;;;;;49.40;26.67;;;;;;;;;;4872622;29;20049;-79
2022/01/15 16:23:31;;;;;;;52.65;28.02;;;;;;;;;;4873992;29;20057;-78
2022/01/15 16:25:58;;;;;;;45.60;26.13;;;;;;;;;;4873779;29;20097;-79
2022/01/15 16:28:25;;;;;;;47.42;26.73;;;;;;;;;;4873243;29;20049;-79
2022/01/15 16:31:00;;;;;;;44.88;24.27;;;;;;;;;;4875444;29;20049;-79
2022/01/15 16:33:28;;;;;;;45.47;26.33;;;;;;;;;;4875970;29;20486;-79
2022/01/15 16:35:55;;;;;;;49.53;25.73;;;;;;;;;;4872758;29;20045;-79
2022/01/15 16:38:22;;;;;;;57.50;29.48;;;;;;;;;;4873153;29;20041;-78
2022/01/15 16:40:51;;;;;;;45.13;25.75;;;;;;;;;;4873488;29;20049;-79
2022/01/15 16:43:18;;;;;;;44.08;25.60;;;;;;;;;;4873553;29;20061;-78
2022/01/15 16:45:45;;;;;;;57.05;25.67;;;;;;;;;;4876453;29;20057;-79
2022/01/15 16:48:12;;;;;;;51.58;27.23;;;;;;;;;;4873981;29;20489;-79
2022/01/15 16:50:40;;;;;;;50.60;28.25;;;;;;;;;;4873647;29;20073;-78
2022/01/15 16:53:08;;;;;;;50.08;28.67;;;;;;;;;;4873099;29;20045;-78
2022/01/15 16:55:35;;;;;;;61.97;29.38;;;;;;;;;;4873227;29;20113;-78
2022/01/15 16:58:02;;;;;;;59.03;29.40;;;;;;;;;;4873925;29;20053;-79
2022/01/15 17:00:29;;;;;;;54.15;28.35;;;;;;;;;;4893410;29;20501;-78
2022/01/15 17:02:56;;;;;;;62.05;31.98;;;;;;;;;;4891838;29;20056;-79
2022/01/15 17:05:24;;;;;;;59.47;29.80;;;;;;;;;;4890681;29;20108;-79
2022/01/15 17:07:51;;;;;;;66.65;31.20;;;;;;;;;;4892071;29;20052;-79
2022/01/15 17:10:17;;;;;;;57.25;30.88;;;;;;;;;;4891527;29;20117;-79
2022/01/15 17:12:45;;;;;;;58.67;30.42;;;;;;;;;;4894769;29;20120;-79
2022/01/15 17:15:13;;;;;;;62.15;33.25;;;;;;;;;;4891008;29;20119;-79
2022/01/15 17:17:40;;;;;;;72.13;36.00;;;;;;;;;;4891587;29;20056;-79
2022/01/15 17:20:10;;;;;;;69.72;36.17;;;;;;;;;;4892498;29;20067;-78
2022/01/15 17:22:38;;;;;;;78.15;40.38;;;;;;;;;;4892090;29;20092;-78
2022/01/15 17:25:07;;;;;;;93.13;47.87;;;;;;;;;;4892463;29;20049;-78
2022/01/15 17:27:34;;;;;;;72.38;39.30;;;;;;;;;;4900911;29;20087;-78
2022/01/15 17:30:02;;;;;;;74.10;37.40;;;;;;;;;;4894213;29;20052;-78
2022/01/15 17:32:29;;;;;;;71.88;36.83;;;;;;;;;;4898192;29;20052;-77
2022/01/15 17:34:56;;;;;;;84.25;40.92;;;;;;;;;;4896510;29;20128;-77
2022/01/15 17:37:22;;;;;;;75.03;38.05;;;;;;;;;;4894060;29;20065;-78
2022/01/15 17:39:49;;;;;;;79.07;38.15;;;;;;;;;;4895165;29;20048;-78
2022/01/15 17:42:16;;;;;;;83.13;39.92;;;;;;;;;;4900725;29;20048;-78
2022/01/15 17:44:44;;;;;;;75.82;35.28;;;;;;;;;;4891989;29;20053;-78
2022/01/15 17:47:13;;;;;;;84.35;41.63;;;;;;;;;;4889199;29;20518;-78
2022/01/15 17:49:40;;;;;;;79.05;37.22;;;;;;;;;;4883021;29;20056;-79
2022/01/15 17:52:08;;;;;;;75.80;37.30;;;;;;;;;;4885067;29;20569;-78
2022/01/15 17:54:36;;;;;;;74.45;37.85;;;;;;;;;;4881018;29;20076;-78
2022/01/15 17:57:03;;;;;;;79.35;38.88;;;;;;;;;;4862414;29;20049;-77
2022/01/15 17:59:30;;;;;;;99.97;47.08;;;;;;;;;;4876987;29;20073;-78
2022/01/15 18:01:57;;;;;;;83.90;38.03;;;;;;;;;;4864930;29;20453;-78
2022/01/15 18:04:24;;;;;;;90.00;41.92;;;;;;;;;;4868660;29;20060;-78
2022/01/15 18:06:50;;;;;;;86.13;41.10;;;;;;;;;;4859407;29;20550;-77
2022/01/15 18:09:17;;;;;;;77.18;36.45;;;;;;;;;;4870916;29;20049;-78
2022/01/15 18:11:45;;;;;;;102.63;50.55;;;;;;;;;;4853551;29;20300;-78
2022/01/15 18:14:14;;;;;;;89.90;39.83;;;;;;;;;;4861793;29;20091;-78
2022/01/15 18:16:42;;;;;;;96.18;41.67;;;;;;;;;;4874324;29;20053;-78
2022/01/15 18:19:10;;;;;;;84.00;37.60;;;;;;;;;;4874565;29;20045;-77
2022/01/15 18:21:41;;;;;;;101.55;45.13;;;;;;;;;;4887722;29;20060;-78
2022/01/15 18:24:11;;;;;;;146.05;74.80;;;;;;;;;;4869228;29;20052;-78
2022/01/15 18:26:39;;;;;;;96.43;48.70;;;;;;;;;;4872497;29;20136;-78
2022/01/15 18:29:06;;;;;;;108.30;52.55;;;;;;;;;;4874545;29;20049;-77
2022/01/15 18:31:34;;;;;;;101.00;41.38;;;;;;;;;;4882606;29;20565;-78
2022/01/15 18:34:02;;;;;;;101.88;43.10;;;;;;;;;;4873441;29;20602;-78
2022/01/15 18:36:29;;;;;;;101.45;44.13;;;;;;;;;;4870520;29;20052;-78
2022/01/15 18:38:56;;;;;;;117.55;55.22;;;;;;;;;;4873581;29;20053;-78
2022/01/15 18:41:23;;;;;;;103.50;45.20;;;;;;;;;;4874906;29;20665;-78
2022/01/15 18:43:50;;;;;;;107.13;50.25;;;;;;;;;;4873111;29;20049;-78
2022/01/15 18:46:17;;;;;;;90.43;42.00;;;;;;;;;;4874551;29;20108;-78
2022/01/15 18:48:44;;;;;;;89.38;41.78;;;;;;;;;;4886329;29;20052;-77
2022/01/15 18:51:18;;;;;;;82.28;36.78;;;;;;;;;;4865764;29;20076;-78
2022/01/15 18:53:49;;;;;;;79.97;38.40;;;;;;;;;;4863657;29;20106;-78
2022/01/15 18:56:19;;;;;;;83.15;42.60;;;;;;;;;;4856994;29;20101;-77
2022/01/15 18:58:47;;;;;;;90.57;41.25;;;;;;;;;;4866863;29;20463;-77
2022/01/15 19:01:14;;;;;;;94.13;44.50;;;;;;;;;;4871644;29;20540;-77
2022/01/15 19:03:41;;;;;;;102.03;48.05;;;;;;;;;;4869819;29;20072;-78
2022/01/15 19:06:08;;;;;;;112.28;47.35;;;;;;;;;;4866532;29;20486;-78
2022/01/15 19:08:36;;;;;;;150.68;62.35;;;;;;;;;;4859440;29;20491;-78
2022/01/15 19:11:03;;;;;;;137.75;62.00;;;;;;;;;;4863021;29;20041;-78
2022/01/15 19:13:31;;;;;;;184.48;81.18;;;;;;;;;;4872807;29;20076;-78
2022/01/15 19:15:58;;;;;;;223.85;94.35;;;;;;;;;;4873366;29;20144;-77
2022/01/15 19:18:25;;;;;;;159.68;66.40;;;;;;;;;;4865126;29;20538;-77
2022/01/15 19:20:51;;;;;;;156.43;62.78;;;;;;;;;;4871991;29;20124;-78
2022/01/15 19:23:18;;;;;;;189.75;86.50;;;;;;;;;;4862027;29;20045;-78
2022/01/15 19:25:45;;;;;;;171.13;74.65;;;;;;;;;;4858090;29;20101;-77
2022/01/15 19:28:12;;;;;;;145.10;59.00;;;;;;;;;;4844113;29;20053;-78
2022/01/15 19:30:40;;;;;;;189.02;85.70;;;;;;;;;;4861347;29;20050;-77
2022/01/15 19:33:08;;;;;;;148.93;58.70;;;;;;;;;;4866129;29;20251;-77
2022/01/15 19:35:36;;;;;;;165.25;68.82;;;;;;;;;;4852983;29;20430;-78
2022/01/15 19:38:04;;;;;;;174.80;69.03;;;;;;;;;;4871531;29;20057;-77
2022/01/15 19:40:32;;;;;;;;;;;;;;;;;;4890877;29;20175;-77
2022/01/15 19:42:59;;;;;;;201.48;85.25;;;;;;;;;;4876398;29;20345;-77
2022/01/15 19:45:26;;;;;;;187.50;67.15;;;;;;;;;;4872933;29;20053;-77
2022/01/15 19:47:53;;;;;;;211.47;65.00;;;;;;;;;;4871889;29;20057;-77
2022/01/15 19:50:21;;;;;;;210.13;65.93;;;;;;;;;;4871154;29;20081;-77
2022/01/15 19:52:52;;;;;;;204.15;62.08;;;;;;;;;;4872272;29;20393;-77
2022/01/15 19:55:21;;;;;;;211.20;56.83;;;;;;;;;;4870801;29;20143;-77
2022/01/15 19:57:48;;;;;;;163.68;51.58;;;;;;;;;;4872359;29;20314;-77
2022/01/15 20:00:18;;;;;;;162.55;54.50;;;;;;;;;;4871354;29;20049;-77
2022/01/15 20:02:45;;;;;;;175.07;52.70;;;;;;;;;;4871755;29;20060;-77
2022/01/15 20:05:16;;;;;;;132.90;53.65;;;;;;;;;;4863823;29;20072;-77
2022/01/15 20:07:48;;;;;;;207.30;82.22;;;;;;;;;;4841989;29;20136;-77
2022/01/15 20:10:18;;;;;;;159.45;54.72;;;;;;;;;;4841406;29;20109;-78
2022/01/15 20:12:47;;;;;;;148.70;53.10;;;;;;;;;;4843861;29;20065;-77
2022/01/15 20:15:16;;;;;;;143.93;54.00;;;;;;;;;;4842508;29;20499;-78
2022/01/15 20:17:42;;;;;;;163.00;54.03;;;;;;;;;;4842442;29;20146;-78
2022/01/15 20:20:09;;;;;;;162.63;50.78;;;;;;;;;;4847670;29;20045;-77
2022/01/15 20:22:36;;;;;;;168.63;53.08;;;;;;;;;;4853432;29;20515;-77
2022/01/15 20:25:03;;;;;;;173.13;53.10;;;;;;;;;;4852262;29;20053;-77
2022/01/15 20:27:29;;;;;;;141.90;50.95;;;;;;;;;;4851531;29;20148;-77
2022/01/15 20:29:56;;;;;;;176.88;54.03;;;;;;;;;;4852393;29;20081;-77
2022/01/15 20:32:22;;;;;;;171.77;63.03;;;;;;;;;;4846931;29;20041;-77
2022/01/15 20:34:49;;;;;;;168.45;56.20;;;;;;;;;;4851753;29;20070;-77
2022/01/15 20:37:17;;;;;;;227.10;66.72;;;;;;;;;;4851805;29;20106;-77
2022/01/15 20:39:44;;;;;;;160.20;55.13;;;;;;;;;;4852139;29;20588;-77
2022/01/15 20:42:13;;;;;;;149.85;51.80;;;;;;;;;;4852338;29;20053;-77
2022/01/15 20:44:40;;;;;;;189.60;52.78;;;;;;;;;;4853302;29;20085;-77
2022/01/15 20:47:07;;;;;;;202.98;63.33;;;;;;;;;;4851903;29;20053;-78
2022/01/15 20:49:35;;;;;;;155.60;50.10;;;;;;;;;;4852895;29;20057;-78
2022/01/15 20:52:01;;;;;;;243.80;80.93;;;;;;;;;;4852036;29;20078;-78
2022/01/15 20:54:29;;;;;;;447.30;157.45;;;;;;;;;;4853141;29;20045;-78
2022/01/15 20:56:55;;;;;;;296.98;103.15;;;;;;;;;;4852010;29;20158;-77
2022/01/15 20:59:22;;;;;;;465.30;152.38;;;;;;;;;;4852234;29;20456;-77
2022/01/15 21:01:48;;;;;;;365.98;110.53;;;;;;;;;;4877152;29;20626;-78
2022/01/15 21:04:17;;;;;;;389.67;114.05;;;;;;;;;;4888631;29;20052;-77
2022/01/15 21:06:45;;;;;;;363.40;102.68;;;;;;;;;;4872949;29;20056;-78
2022/01/15 21:09:13;;;;;;;358.95;103.57;;;;;;;;;;4889153;29;20487;-78
2022/01/15 21:11:41;;;;;;;413.97;85.63;;;;;;;;;;4889291;29;20072;-78
2022/01/15 21:14:09;;;;;;;523.65;82.40;;;;;;;;;;4888421;29;20088;-78
2022/01/15 21:16:36;;;;;;;456.38;64.72;;;;;;;;;;4889340;29;20072;-78
2022/01/15 21:19:04;;;;;;;485.90;57.78;;;;;;;;;;4889519;29;20056;-78
2022/01/15 21:21:31;;;;;;;703.80;79.13;;;;;;;;;;4889132;29;20113;-78
2022/01/15 21:23:58;;;;;;;482.43;73.70;;;;;;;;;;4888590;29;20050;-77
2022/01/15 21:26:45;;;;;;;563.58;67.57;;;;;;;;;;4886121;29;20165;-77
2022/01/15 21:29:11;;;;;;;867.20;98.50;;;;;;;;;;4888734;29;20522;-78
2022/01/15 21:31:38;;;;;;;619.90;64.38;;;;;;;;;;4889006;29;20056;-78
2022/01/15 21:34:05;;;;;;;675.00;67.65;;;;;;;;;;4888369;29;20341;-78